sensor_id;sensor_type;location;lat;lon;timestamp;P1;durP1;ratioP1;P2;durP2;ratioP2
35576;SDS011;21680;52.400;16.920;2023-08-31T00:00:42;19.60;;;11.10;;
35576;SDS011;21680;52.400;16.920;2023-08-31T00:03:08;23.80;;;11.20;;
35576;SDS011;21680;52.400;16.920;2023-08-31T00:05:41;21.00;;;11.70;;
35576;SDS011;21680;52.400;16.920;2023-08-31T00:08:08;22.30;;;13.10;;
35576;SDS011;21680;52.400;16.920;2023-08-31T00:10:34;26.10;;;13.20;;
35576;SDS011;21680;52.400;16.920;2023-08-31T00:13:03;22.80;;;12.90;;
35576;SDS011;21680;52.400;16.920;2023-08-31T00:15:29;22.10;;;12.10;;
35576;SDS011;21680;52.400;16.920;2023-08-31T00:17:57;22.70;;;10.90;;
35576;SDS011;21680;52.400;16.920;2023-08-31T00:20:23;22.20;;;11.20;;
35576;SDS011;21680;52.400;16.920;2023-08-31T00:22:48;18.60;;;11.00;;
35576;SDS011;21680;52.400;16.920;2023-08-31T00:25:14;15.80;;;10.30;;
35576;SDS011;21680;52.400;16.920;2023-08-31T00:27:39;20.40;;;10.70;;
35576;SDS011;21680;52.400;16.920;2023-08-31T00:30:06;19.20;;;11.10;;
35576;SDS011;21680;52.400;16.920;2023-08-31T00:32:37;21.50;;;10.60;;
35576;SDS011;21680;52.400;16.920;2023-08-31T00:35:04;18.10;;;10.40;;
35576;SDS011;21680;52.400;16.920;2023-08-31T00:37:30;22.90;;;10.10;;
35576;SDS011;21680;52.400;16.920;2023-08-31T00:39:56;19.20;;;10.00;;
35576;SDS011;21680;52.400;16.920;2023-08-31T00:42:21;20.80;;;9.80;;
35576;SDS011;21680;52.400;16.920;2023-08-31T00:44:47;15.00;;;9.90;;
35576;SDS011;21680;52.400;16.920;2023-08-31T00:47:12;17.60;;;8.30;;
35576;SDS011;21680;52.400;16.920;2023-08-31T00:49:39;14.30;;;8.70;;
35576;SDS011;21680;52.400;16.920;2023-08-31T00:52:05;15.20;;;7.90;;
35576;SDS011;21680;52.400;16.920;2023-08-31T00:54:31;15.60;;;8.60;;
35576;SDS011;21680;52.400;16.920;2023-08-31T00:56:57;12.90;;;8.10;;
35576;SDS011;21680;52.400;16.920;2023-08-31T00:59:23;16.20;;;7.80;;
35576;SDS011;21680;52.400;16.920;2023-08-31T01:01:50;19.30;;;8.20;;
35576;SDS011;21680;52.400;16.920;2023-08-31T01:04:27;11.60;;;8.00;;
35576;SDS011;21680;52.400;16.920;2023-08-31T01:09:50;17.50;;;7.60;;
35576;SDS011;21680;52.400;16.920;2023-08-31T01:12:22;14.60;;;7.80;;
35576;SDS011;21680;52.400;16.920;2023-08-31T01:14:59;16.70;;;8.20;;
35576;SDS011;21680;52.400;16.920;2023-08-31T01:17:29;19.40;;;8.00;;
35576;SDS011;21680;52.400;16.920;2023-08-31T01:19:57;16.30;;;7.80;;
35576;SDS011;21680;52.400;16.920;2023-08-31T01:22:40;14.00;;;7.90;;
35576;SDS011;21680;52.400;16.920;2023-08-31T01:25:12;13.60;;;8.20;;
35576;SDS011;21680;52.400;16.920;2023-08-31T01:27:37;13.00;;;6.90;;
35576;SDS011;21680;52.400;16.920;2023-08-31T01:30:04;14.70;;;7.60;;
35576;SDS011;21680;52.400;16.920;2023-08-31T01:32:30;13.90;;;7.60;;
35576;SDS011;21680;52.400;16.920;2023-08-31T01:34:56;13.40;;;7.10;;
35576;SDS011;21680;52.400;16.920;2023-08-31T01:37:28;12.30;;;7.30;;
35576;SDS011;21680;52.400;16.920;2023-08-31T01:40:01;8.60;;;6.90;;
35576;SDS011;21680;52.400;16.920;2023-08-31T01:42:35;12.70;;;7.70;;
35576;SDS011;21680;52.400;16.920;2023-08-31T01:45:01;16.80;;;7.50;;
35576;SDS011;21680;52.400;16.920;2023-08-31T01:47:29;17.50;;;7.90;;
35576;SDS011;21680;52.400;16.920;2023-08-31T01:49:55;11.00;;;7.30;;
35576;SDS011;21680;52.400;16.920;2023-08-31T01:52:21;12.50;;;7.80;;
35576;SDS011;21680;52.400;16.920;2023-08-31T01:54:46;18.30;;;7.90;;
35576;SDS011;21680;52.400;16.920;2023-08-31T01:57:11;12.60;;;7.70;;
35576;SDS011;21680;52.400;16.920;2023-08-31T01:59:36;12.80;;;7.10;;
35576;SDS011;21680;52.400;16.920;2023-08-31T02:02:02;12.40;;;7.80;;
35576;SDS011;21680;52.400;16.920;2023-08-31T02:04:27;9.90;;;6.80;;
35576;SDS011;21680;52.400;16.920;2023-08-31T02:06:52;11.40;;;7.10;;
35576;SDS011;21680;52.400;16.920;2023-08-31T02:09:18;10.80;;;7.10;;
35576;SDS011;21680;52.400;16.920;2023-08-31T02:11:43;9.80;;;7.60;;
35576;SDS011;21680;52.400;16.920;2023-08-31T02:14:08;9.80;;;7.10;;
35576;SDS011;21680;52.400;16.920;2023-08-31T02:16:34;13.50;;;7.40;;
35576;SDS011;21680;52.400;16.920;2023-08-31T02:18:59;10.30;;;7.10;;
35576;SDS011;21680;52.400;16.920;2023-08-31T02:21:25;10.00;;;7.50;;
35576;SDS011;21680;52.400;16.920;2023-08-31T02:23:50;13.00;;;7.30;;
35576;SDS011;21680;52.400;16.920;2023-08-31T02:26:15;16.30;;;7.20;;
35576;SDS011;21680;52.400;16.920;2023-08-31T02:28:40;8.90;;;6.50;;
35576;SDS011;21680;52.400;16.920;2023-08-31T02:31:06;11.30;;;7.40;;
35576;SDS011;21680;52.400;16.920;2023-08-31T02:33:31;13.00;;;8.20;;
35576;SDS011;21680;52.400;16.920;2023-08-31T02:35:56;11.30;;;8.30;;
35576;SDS011;21680;52.400;16.920;2023-08-31T02:38:22;11.40;;;8.00;;
35576;SDS011;21680;52.400;16.920;2023-08-31T02:40:48;14.80;;;8.50;;
35576;SDS011;21680;52.400;16.920;2023-08-31T02:43:14;15.30;;;8.00;;
35576;SDS011;21680;52.400;16.920;2023-08-31T02:45:39;10.40;;;8.30;;
35576;SDS011;21680;52.400;16.920;2023-08-31T02:48:06;17.20;;;8.80;;
35576;SDS011;21680;52.400;16.920;2023-08-31T02:50:33;15.60;;;8.50;;
35576;SDS011;21680;52.400;16.920;2023-08-31T02:52:59;12.30;;;7.70;;
35576;SDS011;21680;52.400;16.920;2023-08-31T02:55:24;12.10;;;9.00;;
35576;SDS011;21680;52.400;16.920;2023-08-31T02:57:49;19.80;;;8.60;;
35576;SDS011;21680;52.400;16.920;2023-08-31T03:00:15;15.10;;;8.90;;
35576;SDS011;21680;52.400;16.920;2023-08-31T03:02:41;14.20;;;9.50;;
35576;SDS011;21680;52.400;16.920;2023-08-31T03:05:08;11.80;;;8.60;;
35576;SDS011;21680;52.400;16.920;2023-08-31T03:07:34;17.40;;;8.70;;
35576;SDS011;21680;52.400;16.920;2023-08-31T03:09:59;16.10;;;9.20;;
35576;SDS011;21680;52.400;16.920;2023-08-31T03:12:24;19.50;;;8.70;;
35576;SDS011;21680;52.400;16.920;2023-08-31T03:14:49;12.60;;;9.00;;
35576;SDS011;21680;52.400;16.920;2023-08-31T03:17:15;13.80;;;9.00;;
35576;SDS011;21680;52.400;16.920;2023-08-31T03:19:40;14.60;;;8.60;;
35576;SDS011;21680;52.400;16.920;2023-08-31T03:22:06;15.50;;;9.40;;
35576;SDS011;21680;52.400;16.920;2023-08-31T03:24:35;15.40;;;8.80;;
35576;SDS011;21680;52.400;16.920;2023-08-31T03:27:00;15.60;;;9.40;;
35576;SDS011;21680;52.400;16.920;2023-08-31T03:29:25;13.40;;;9.30;;
35576;SDS011;21680;52.400;16.920;2023-08-31T03:31:50;16.80;;;8.90;;
35576;SDS011;21680;52.400;16.920;2023-08-31T03:34:15;13.00;;;9.10;;
35576;SDS011;21680;52.400;16.920;2023-08-31T03:36:41;13.90;;;9.00;;
35576;SDS011;21680;52.400;16.920;2023-08-31T03:39:06;16.70;;;9.70;;
35576;SDS011;21680;52.400;16.920;2023-08-31T03:41:31;12.90;;;8.80;;
35576;SDS011;21680;52.400;16.920;2023-08-31T03:43:57;14.00;;;10.40;;
35576;SDS011;21680;52.400;16.920;2023-08-31T03:46:22;16.40;;;10.30;;
35576;SDS011;21680;52.400;16.920;2023-08-31T03:48:47;19.30;;;10.30;;
35576;SDS011;21680;52.400;16.920;2023-08-31T03:51:12;16.60;;;10.20;;
35576;SDS011;21680;52.400;16.920;2023-08-31T03:53:38;14.20;;;9.70;;
35576;SDS011;21680;52.400;16.920;2023-08-31T03:56:03;13.60;;;9.90;;
35576;SDS011;21680;52.400;16.920;2023-08-31T03:58:29;14.10;;;10.00;;
35576;SDS011;21680;52.400;16.920;2023-08-31T04:00:55;17.60;;;10.00;;
35576;SDS011;21680;52.400;16.920;2023-08-31T04:03:21;14.20;;;9.50;;
35576;SDS011;21680;52.400;16.920;2023-08-31T04:05:47;17.50;;;11.00;;
35576;SDS011;21680;52.400;16.920;2023-08-31T04:08:12;17.10;;;10.40;;
35576;SDS011;21680;52.400;16.920;2023-08-31T04:10:38;14.00;;;9.60;;
35576;SDS011;21680;52.400;16.920;2023-08-31T04:13:03;18.00;;;10.10;;
35576;SDS011;21680;52.400;16.920;2023-08-31T04:15:29;15.90;;;10.60;;
35576;SDS011;21680;52.400;16.920;2023-08-31T04:17:55;20.20;;;10.40;;
35576;SDS011;21680;52.400;16.920;2023-08-31T04:20:21;15.60;;;11.40;;
35576;SDS011;21680;52.400;16.920;2023-08-31T04:22:47;16.40;;;10.80;;
35576;SDS011;21680;52.400;16.920;2023-08-31T04:25:12;18.20;;;11.10;;
35576;SDS011;21680;52.400;16.920;2023-08-31T04:27:38;14.60;;;10.80;;
35576;SDS011;21680;52.400;16.920;2023-08-31T04:30:05;19.10;;;10.70;;
35576;SDS011;21680;52.400;16.920;2023-08-31T04:32:32;18.70;;;10.30;;
35576;SDS011;21680;52.400;16.920;2023-08-31T04:34:58;16.90;;;9.60;;
35576;SDS011;21680;52.400;16.920;2023-08-31T04:37:23;19.70;;;11.90;;
35576;SDS011;21680;52.400;16.920;2023-08-31T04:39:48;14.60;;;10.90;;
35576;SDS011;21680;52.400;16.920;2023-08-31T04:42:13;18.60;;;10.60;;
35576;SDS011;21680;52.400;16.920;2023-08-31T04:44:41;15.60;;;10.90;;
35576;SDS011;21680;52.400;16.920;2023-08-31T04:47:06;19.20;;;10.20;;
35576;SDS011;21680;52.400;16.920;2023-08-31T04:49:32;18.00;;;11.40;;
35576;SDS011;21680;52.400;16.920;2023-08-31T04:51:57;19.40;;;10.90;;
35576;SDS011;21680;52.400;16.920;2023-08-31T04:54:22;16.30;;;10.20;;
35576;SDS011;21680;52.400;16.920;2023-08-31T04:56:47;17.90;;;10.80;;
35576;SDS011;21680;52.400;16.920;2023-08-31T04:59:13;15.50;;;11.20;;
35576;SDS011;21680;52.400;16.920;2023-08-31T05:01:38;15.90;;;11.30;;
35576;SDS011;21680;52.400;16.920;2023-08-31T05:04:03;14.70;;;10.90;;
35576;SDS011;21680;52.400;16.920;2023-08-31T05:06:29;19.70;;;11.70;;
35576;SDS011;21680;52.400;16.920;2023-08-31T05:08:54;20.60;;;10.50;;
35576;SDS011;21680;52.400;16.920;2023-08-31T05:11:19;19.50;;;10.70;;
35576;SDS011;21680;52.400;16.920;2023-08-31T05:13:45;20.00;;;11.90;;
35576;SDS011;21680;52.400;16.920;2023-08-31T05:16:10;16.90;;;11.40;;
35576;SDS011;21680;52.400;16.920;2023-08-31T05:18:36;19.70;;;11.70;;
35576;SDS011;21680;52.400;16.920;2023-08-31T05:21:03;22.10;;;12.70;;
35576;SDS011;21680;52.400;16.920;2023-08-31T05:23:28;24.20;;;11.10;;
35576;SDS011;21680;52.400;16.920;2023-08-31T05:25:54;28.30;;;12.50;;
35576;SDS011;21680;52.400;16.920;2023-08-31T05:28:21;30.00;;;12.40;;
35576;SDS011;21680;52.400;16.920;2023-08-31T05:30:51;20.00;;;11.50;;
35576;SDS011;21680;52.400;16.920;2023-08-31T05:33:20;33.20;;;12.50;;
35576;SDS011;21680;52.400;16.920;2023-08-31T05:35:47;16.70;;;12.50;;
35576;SDS011;21680;52.400;16.920;2023-08-31T05:38:12;17.70;;;11.60;;
35576;SDS011;21680;52.400;16.920;2023-08-31T05:40:38;21.30;;;12.20;;
35576;SDS011;21680;52.400;16.920;2023-08-31T05:43:04;16.60;;;11.50;;
35576;SDS011;21680;52.400;16.920;2023-08-31T05:45:33;15.80;;;10.80;;
35576;SDS011;21680;52.400;16.920;2023-08-31T05:47:58;18.50;;;11.20;;
35576;SDS011;21680;52.400;16.920;2023-08-31T05:50:24;15.20;;;9.90;;
35576;SDS011;21680;52.400;16.920;2023-08-31T05:52:49;26.40;;;12.30;;
35576;SDS011;21680;52.400;16.920;2023-08-31T05:55:14;20.10;;;12.10;;
35576;SDS011;21680;52.400;16.920;2023-08-31T05:57:39;23.40;;;12.40;;
35576;SDS011;21680;52.400;16.920;2023-08-31T06:00:05;24.10;;;11.50;;
35576;SDS011;21680;52.400;16.920;2023-08-31T06:02:33;18.60;;;10.80;;
35576;SDS011;21680;52.400;16.920;2023-08-31T06:04:58;17.70;;;10.00;;
35576;SDS011;21680;52.400;16.920;2023-08-31T06:07:23;18.00;;;10.30;;
35576;SDS011;21680;52.400;16.920;2023-08-31T06:09:49;20.20;;;10.90;;
35576;SDS011;21680;52.400;16.920;2023-08-31T06:12:14;12.80;;;9.30;;
35576;SDS011;21680;52.400;16.920;2023-08-31T06:14:39;9.80;;;7.90;;
35576;SDS011;21680;52.400;16.920;2023-08-31T06:17:04;12.60;;;8.30;;
35576;SDS011;21680;52.400;16.920;2023-08-31T06:19:29;9.90;;;7.90;;
35576;SDS011;21680;52.400;16.920;2023-08-31T06:21:55;11.20;;;8.20;;
35576;SDS011;21680;52.400;16.920;2023-08-31T06:24:20;18.30;;;8.00;;
35576;SDS011;21680;52.400;16.920;2023-08-31T06:26:45;12.30;;;8.10;;
35576;SDS011;21680;52.400;16.920;2023-08-31T06:29:10;17.90;;;7.90;;
35576;SDS011;21680;52.400;16.920;2023-08-31T06:31:36;11.40;;;7.60;;
35576;SDS011;21680;52.400;16.920;2023-08-31T06:34:02;13.80;;;8.20;;
35576;SDS011;21680;52.400;16.920;2023-08-31T06:36:29;14.70;;;8.30;;
35576;SDS011;21680;52.400;16.920;2023-08-31T06:38:55;12.90;;;8.30;;
35576;SDS011;21680;52.400;16.920;2023-08-31T06:41:20;10.10;;;7.90;;
35576;SDS011;21680;52.400;16.920;2023-08-31T06:43:45;12.90;;;8.20;;
35576;SDS011;21680;52.400;16.920;2023-08-31T06:46:11;13.80;;;9.00;;
35576;SDS011;21680;52.400;16.920;2023-08-31T06:48:36;11.60;;;8.20;;
35576;SDS011;21680;52.400;16.920;2023-08-31T06:51:02;13.80;;;8.00;;
35576;SDS011;21680;52.400;16.920;2023-08-31T06:53:28;21.10;;;8.00;;
35576;SDS011;21680;52.400;16.920;2023-08-31T06:55:54;13.10;;;8.50;;
35576;SDS011;21680;52.400;16.920;2023-08-31T06:58:19;13.60;;;9.50;;
35576;SDS011;21680;52.400;16.920;2023-08-31T07:00:45;12.50;;;7.60;;
35576;SDS011;21680;52.400;16.920;2023-08-31T07:03:10;12.90;;;8.40;;
35576;SDS011;21680;52.400;16.920;2023-08-31T07:05:36;13.70;;;8.80;;
35576;SDS011;21680;52.400;16.920;2023-08-31T07:08:07;19.10;;;9.20;;
35576;SDS011;21680;52.400;16.920;2023-08-31T07:10:33;12.70;;;7.40;;
35576;SDS011;21680;52.400;16.920;2023-08-31T07:13:01;10.50;;;7.60;;
35576;SDS011;21680;52.400;16.920;2023-08-31T07:15:27;12.90;;;7.90;;
35576;SDS011;21680;52.400;16.920;2023-08-31T07:17:52;12.20;;;7.10;;
35576;SDS011;21680;52.400;16.920;2023-08-31T07:20:17;9.90;;;7.20;;
35576;SDS011;21680;52.400;16.920;2023-08-31T07:22:42;9.80;;;6.90;;
35576;SDS011;21680;52.400;16.920;2023-08-31T07:25:08;8.90;;;6.50;;
35576;SDS011;21680;52.400;16.920;2023-08-31T07:27:33;10.20;;;6.80;;
35576;SDS011;21680;52.400;16.920;2023-08-31T07:29:58;10.30;;;6.70;;
35576;SDS011;21680;52.400;16.920;2023-08-31T07:32:23;9.90;;;5.80;;
35576;SDS011;21680;52.400;16.920;2023-08-31T07:34:49;10.00;;;6.40;;
35576;SDS011;21680;52.400;16.920;2023-08-31T07:37:14;14.40;;;6.90;;
35576;SDS011;21680;52.400;16.920;2023-08-31T07:39:39;12.70;;;5.60;;
35576;SDS011;21680;52.400;16.920;2023-08-31T07:42:05;8.70;;;4.80;;
35576;SDS011;21680;52.400;16.920;2023-08-31T07:44:30;10.90;;;5.80;;
35576;SDS011;21680;52.400;16.920;2023-08-31T07:46:56;16.00;;;6.20;;
35576;SDS011;21680;52.400;16.920;2023-08-31T07:49:21;9.10;;;5.50;;
35576;SDS011;21680;52.400;16.920;2023-08-31T07:51:46;8.30;;;5.60;;
35576;SDS011;21680;52.400;16.920;2023-08-31T07:54:18;8.80;;;6.20;;
35576;SDS011;21680;52.400;16.920;2023-08-31T07:56:44;6.80;;;5.00;;
35576;SDS011;21680;52.400;16.920;2023-08-31T07:59:10;6.30;;;5.10;;
35576;SDS011;21680;52.400;16.920;2023-08-31T08:01:35;10.40;;;5.80;;
35576;SDS011;21680;52.400;16.920;2023-08-31T08:04:00;6.20;;;5.30;;
35576;SDS011;21680;52.400;16.920;2023-08-31T08:06:26;9.60;;;5.80;;
35576;SDS011;21680;52.400;16.920;2023-08-31T08:08:51;8.30;;;5.60;;
35576;SDS011;21680;52.400;16.920;2023-08-31T08:11:16;6.40;;;5.70;;
35576;SDS011;21680;52.400;16.920;2023-08-31T08:13:41;8.50;;;6.50;;
35576;SDS011;21680;52.400;16.920;2023-08-31T08:16:07;11.60;;;7.40;;
35576;SDS011;21680;52.400;16.920;2023-08-31T08:18:34;9.00;;;8.10;;
35576;SDS011;21680;52.400;16.920;2023-08-31T08:20:59;9.80;;;8.30;;
35576;SDS011;21680;52.400;16.920;2023-08-31T08:23:24;11.40;;;8.90;;
35576;SDS011;21680;52.400;16.920;2023-08-31T08:25:49;14.90;;;9.90;;
35576;SDS011;21680;52.400;16.920;2023-08-31T08:28:15;13.10;;;9.90;;
35576;SDS011;21680;52.400;16.920;2023-08-31T08:30:40;12.50;;;9.90;;
35576;SDS011;21680;52.400;16.920;2023-08-31T08:33:05;12.40;;;11.10;;
35576;SDS011;21680;52.400;16.920;2023-08-31T08:35:30;13.90;;;9.60;;
35576;SDS011;21680;52.400;16.920;2023-08-31T08:37:56;11.00;;;9.20;;
35576;SDS011;21680;52.400;16.920;2023-08-31T08:40:21;10.10;;;7.70;;
35576;SDS011;21680;52.400;16.920;2023-08-31T08:42:47;8.90;;;7.20;;
35576;SDS011;21680;52.400;16.920;2023-08-31T08:45:13;10.10;;;7.30;;
35576;SDS011;21680;52.400;16.920;2023-08-31T08:47:42;11.90;;;7.40;;
35576;SDS011;21680;52.400;16.920;2023-08-31T08:50:09;11.30;;;6.70;;
35576;SDS011;21680;52.400;16.920;2023-08-31T08:52:38;7.20;;;6.00;;
35576;SDS011;21680;52.400;16.920;2023-08-31T08:55:05;6.00;;;5.30;;
35576;SDS011;21680;52.400;16.920;2023-08-31T08:57:31;7.00;;;5.50;;
35576;SDS011;21680;52.400;16.920;2023-08-31T08:59:57;9.40;;;4.50;;
35576;SDS011;21680;52.400;16.920;2023-08-31T09:02:23;5.30;;;3.50;;
35576;SDS011;21680;52.400;16.920;2023-08-31T09:04:49;6.90;;;3.20;;
35576;SDS011;21680;52.400;16.920;2023-08-31T09:07:18;6.40;;;4.30;;
35576;SDS011;21680;52.400;16.920;2023-08-31T09:09:49;3.90;;;3.60;;
35576;SDS011;21680;52.400;16.920;2023-08-31T09:12:16;5.80;;;3.50;;
35576;SDS011;21680;52.400;16.920;2023-08-31T09:14:42;6.40;;;4.30;;
35576;SDS011;21680;52.400;16.920;2023-08-31T09:17:07;5.90;;;4.00;;
35576;SDS011;21680;52.400;16.920;2023-08-31T09:19:32;8.60;;;3.70;;
35576;SDS011;21680;52.400;16.920;2023-08-31T09:21:58;4.70;;;3.20;;
35576;SDS011;21680;52.400;16.920;2023-08-31T09:24:23;4.30;;;3.90;;
35576;SDS011;21680;52.400;16.920;2023-08-31T09:29:23;6.20;;;3.10;;
35576;SDS011;21680;52.400;16.920;2023-08-31T09:31:49;10.20;;;3.10;;
35576;SDS011;21680;52.400;16.920;2023-08-31T09:34:15;3.40;;;3.00;;
35576;SDS011;21680;52.400;16.920;2023-08-31T09:36:41;4.60;;;3.30;;
35576;SDS011;21680;52.400;16.920;2023-08-31T09:39:07;6.50;;;3.20;;
35576;SDS011;21680;52.400;16.920;2023-08-31T09:41:34;4.40;;;3.30;;
35576;SDS011;21680;52.400;16.920;2023-08-31T09:44:17;6.30;;;2.90;;
35576;SDS011;21680;52.400;16.920;2023-08-31T09:46:44;4.10;;;2.60;;
35576;SDS011;21680;52.400;16.920;2023-08-31T09:49:14;4.20;;;2.70;;
35576;SDS011;21680;52.400;16.920;2023-08-31T09:51:41;6.20;;;2.90;;
35576;SDS011;21680;52.400;16.920;2023-08-31T09:54:16;3.60;;;3.10;;
35576;SDS011;21680;52.400;16.920;2023-08-31T09:56:43;4.70;;;2.90;;
35576;SDS011;21680;52.400;16.920;2023-08-31T09:59:10;5.90;;;2.90;;
35576;SDS011;21680;52.400;16.920;2023-08-31T10:01:37;8.40;;;4.90;;
35576;SDS011;21680;52.400;16.920;2023-08-31T10:04:03;3.60;;;2.70;;
35576;SDS011;21680;52.400;16.920;2023-08-31T10:06:31;4.70;;;2.90;;
35576;SDS011;21680;52.400;16.920;2023-08-31T10:08:57;3.80;;;3.30;;
35576;SDS011;21680;52.400;16.920;2023-08-31T10:11:24;5.20;;;3.00;;
35576;SDS011;21680;52.400;16.920;2023-08-31T10:13:50;3.90;;;3.00;;
35576;SDS011;21680;52.400;16.920;2023-08-31T10:16:18;9.20;;;3.70;;
35576;SDS011;21680;52.400;16.920;2023-08-31T10:18:45;4.10;;;2.90;;
35576;SDS011;21680;52.400;16.920;2023-08-31T10:21:10;6.10;;;3.90;;
35576;SDS011;21680;52.400;16.920;2023-08-31T10:23:37;7.40;;;4.60;;
35576;SDS011;21680;52.400;16.920;2023-08-31T10:26:26;7.80;;;4.00;;
35576;SDS011;21680;52.400;16.920;2023-08-31T10:28:52;5.60;;;3.60;;
35576;SDS011;21680;52.400;16.920;2023-08-31T10:31:19;8.00;;;4.50;;
35576;SDS011;21680;52.400;16.920;2023-08-31T10:33:54;7.20;;;5.00;;
35576;SDS011;21680;52.400;16.920;2023-08-31T10:36:22;9.60;;;5.40;;
35576;SDS011;21680;52.400;16.920;2023-08-31T10:39:01;5.90;;;4.50;;
35576;SDS011;21680;52.400;16.920;2023-08-31T10:41:34;6.00;;;4.30;;
35576;SDS011;21680;52.400;16.920;2023-08-31T10:44:00;8.00;;;5.40;;
35576;SDS011;21680;52.400;16.920;2023-08-31T10:46:32;7.70;;;4.60;;
35576;SDS011;21680;52.400;16.920;2023-08-31T10:51:42;5.60;;;4.10;;
35576;SDS011;21680;52.400;16.920;2023-08-31T10:59:19;6.30;;;2.90;;
35576;SDS011;21680;52.400;16.920;2023-08-31T11:01:58;6.10;;;3.40;;
35576;SDS011;21680;52.400;16.920;2023-08-31T11:04:28;9.80;;;3.30;;
35576;SDS011;21680;52.400;16.920;2023-08-31T11:07:13;3.40;;;3.00;;
35576;SDS011;21680;52.400;16.920;2023-08-31T11:09:39;4.30;;;3.00;;
35576;SDS011;21680;52.400;16.920;2023-08-31T11:12:04;4.80;;;3.50;;
35576;SDS011;21680;52.400;16.920;2023-08-31T11:14:30;5.60;;;3.30;;
35576;SDS011;21680;52.400;16.920;2023-08-31T11:16:55;20.70;;;3.70;;
35576;SDS011;21680;52.400;16.920;2023-08-31T11:19:21;3.20;;;2.80;;
35576;SDS011;21680;52.400;16.920;2023-08-31T11:21:47;3.50;;;2.50;;
35576;SDS011;21680;52.400;16.920;2023-08-31T11:24:12;6.80;;;2.90;;
35576;SDS011;21680;52.400;16.920;2023-08-31T11:26:38;4.10;;;2.40;;
35576;SDS011;21680;52.400;16.920;2023-08-31T11:29:06;3.30;;;2.40;;
35576;SDS011;21680;52.400;16.920;2023-08-31T11:31:32;6.60;;;2.60;;
35576;SDS011;21680;52.400;16.920;2023-08-31T11:34:04;4.70;;;2.00;;
35576;SDS011;21680;52.400;16.920;2023-08-31T11:36:30;3.00;;;2.20;;
35576;SDS011;21680;52.400;16.920;2023-08-31T11:38:56;3.40;;;2.30;;
35576;SDS011;21680;52.400;16.920;2023-08-31T11:41:21;6.20;;;2.30;;
35576;SDS011;21680;52.400;16.920;2023-08-31T11:43:46;10.50;;;2.70;;
35576;SDS011;21680;52.400;16.920;2023-08-31T11:46:13;2.70;;;2.00;;
35576;SDS011;21680;52.400;16.920;2023-08-31T11:48:38;5.10;;;2.50;;
35576;SDS011;21680;52.400;16.920;2023-08-31T11:51:04;7.80;;;3.20;;
35576;SDS011;21680;52.400;16.920;2023-08-31T11:53:29;5.10;;;2.70;;
35576;SDS011;21680;52.400;16.920;2023-08-31T11:55:54;7.20;;;2.90;;
35576;SDS011;21680;52.400;16.920;2023-08-31T11:58:20;6.00;;;2.60;;
35576;SDS011;21680;52.400;16.920;2023-08-31T12:00:53;3.30;;;2.50;;
35576;SDS011;21680;52.400;16.920;2023-08-31T12:03:19;3.90;;;2.70;;
35576;SDS011;21680;52.400;16.920;2023-08-31T12:05:45;2.60;;;2.20;;
35576;SDS011;21680;52.400;16.920;2023-08-31T12:08:11;10.30;;;3.30;;
35576;SDS011;21680;52.400;16.920;2023-08-31T12:10:40;6.10;;;2.70;;
35576;SDS011;21680;52.400;16.920;2023-08-31T12:13:11;6.50;;;2.90;;
35576;SDS011;21680;52.400;16.920;2023-08-31T12:15:40;8.20;;;4.20;;
35576;SDS011;21680;52.400;16.920;2023-08-31T12:20:34;7.30;;;3.70;;
35576;SDS011;21680;52.400;16.920;2023-08-31T12:23:08;7.70;;;3.50;;
35576;SDS011;21680;52.400;16.920;2023-08-31T12:25:35;7.10;;;3.40;;
35576;SDS011;21680;52.400;16.920;2023-08-31T12:28:00;6.90;;;3.20;;
35576;SDS011;21680;52.400;16.920;2023-08-31T12:30:26;5.40;;;2.50;;
35576;SDS011;21680;52.400;16.920;2023-08-31T12:32:51;6.10;;;3.60;;
35576;SDS011;21680;52.400;16.920;2023-08-31T12:35:17;6.30;;;2.40;;
35576;SDS011;21680;52.400;16.920;2023-08-31T12:37:42;3.90;;;2.40;;
35576;SDS011;21680;52.400;16.920;2023-08-31T12:40:08;5.50;;;2.60;;
35576;SDS011;21680;52.400;16.920;2023-08-31T12:42:35;8.60;;;2.70;;
35576;SDS011;21680;52.400;16.920;2023-08-31T12:45:00;4.50;;;2.70;;
35576;SDS011;21680;52.400;16.920;2023-08-31T12:47:26;6.00;;;2.50;;
35576;SDS011;21680;52.400;16.920;2023-08-31T12:49:51;3.30;;;2.10;;
35576;SDS011;21680;52.400;16.920;2023-08-31T12:52:16;2.90;;;2.60;;
35576;SDS011;21680;52.400;16.920;2023-08-31T12:54:41;3.40;;;2.70;;
35576;SDS011;21680;52.400;16.920;2023-08-31T12:57:07;3.70;;;2.80;;
35576;SDS011;21680;52.400;16.920;2023-08-31T12:59:32;16.00;;;3.40;;
35576;SDS011;21680;52.400;16.920;2023-08-31T13:01:57;6.10;;;3.50;;
35576;SDS011;21680;52.400;16.920;2023-08-31T13:04:23;6.10;;;3.40;;
35576;SDS011;21680;52.400;16.920;2023-08-31T13:06:48;4.60;;;3.30;;
35576;SDS011;21680;52.400;16.920;2023-08-31T13:09:13;8.60;;;3.50;;
35576;SDS011;21680;52.400;16.920;2023-08-31T13:11:39;4.80;;;3.40;;
35576;SDS011;21680;52.400;16.920;2023-08-31T13:14:04;4.90;;;3.40;;
35576;SDS011;21680;52.400;16.920;2023-08-31T13:16:30;5.80;;;3.20;;
35576;SDS011;21680;52.400;16.920;2023-08-31T13:18:55;5.80;;;3.00;;
35576;SDS011;21680;52.400;16.920;2023-08-31T13:21:20;5.00;;;3.10;;
35576;SDS011;21680;52.400;16.920;2023-08-31T13:23:46;3.30;;;3.00;;
35576;SDS011;21680;52.400;16.920;2023-08-31T13:26:11;6.60;;;2.60;;
35576;SDS011;21680;52.400;16.920;2023-08-31T13:28:37;4.30;;;2.30;;
35576;SDS011;21680;52.400;16.920;2023-08-31T13:31:02;3.80;;;2.30;;
35576;SDS011;21680;52.400;16.920;2023-08-31T13:33:28;5.60;;;2.50;;
35576;SDS011;21680;52.400;16.920;2023-08-31T13:35:56;4.80;;;2.40;;
35576;SDS011;21680;52.400;16.920;2023-08-31T13:38:23;4.00;;;2.50;;
35576;SDS011;21680;52.400;16.920;2023-08-31T13:40:48;3.90;;;2.20;;
35576;SDS011;21680;52.400;16.920;2023-08-31T13:43:19;6.10;;;2.40;;
35576;SDS011;21680;52.400;16.920;2023-08-31T13:45:45;4.90;;;2.40;;
35576;SDS011;21680;52.400;16.920;2023-08-31T13:48:10;4.00;;;2.70;;
35576;SDS011;21680;52.400;16.920;2023-08-31T13:50:35;3.40;;;2.30;;
35576;SDS011;21680;52.400;16.920;2023-08-31T13:53:01;4.30;;;2.60;;
35576;SDS011;21680;52.400;16.920;2023-08-31T13:55:26;2.80;;;2.20;;
35576;SDS011;21680;52.400;16.920;2023-08-31T13:57:52;7.50;;;2.70;;
35576;SDS011;21680;52.400;16.920;2023-08-31T14:00:17;8.90;;;3.10;;
35576;SDS011;21680;52.400;16.920;2023-08-31T14:02:43;5.60;;;3.00;;
35576;SDS011;21680;52.400;16.920;2023-08-31T14:05:08;4.30;;;2.90;;
35576;SDS011;21680;52.400;16.920;2023-08-31T14:07:38;5.40;;;2.70;;
35576;SDS011;21680;52.400;16.920;2023-08-31T14:10:04;4.20;;;2.50;;
35576;SDS011;21680;52.400;16.920;2023-08-31T14:12:30;4.80;;;2.20;;
35576;SDS011;21680;52.400;16.920;2023-08-31T14:14:56;3.80;;;2.70;;
35576;SDS011;21680;52.400;16.920;2023-08-31T14:17:23;3.10;;;2.40;;
35576;SDS011;21680;52.400;16.920;2023-08-31T14:19:48;2.70;;;2.00;;
35576;SDS011;21680;52.400;16.920;2023-08-31T14:22:14;6.90;;;2.60;;
35576;SDS011;21680;52.400;16.920;2023-08-31T14:24:40;7.00;;;2.80;;
35576;SDS011;21680;52.400;16.920;2023-08-31T14:27:05;12.90;;;2.70;;
35576;SDS011;21680;52.400;16.920;2023-08-31T14:29:31;6.30;;;2.80;;
35576;SDS011;21680;52.400;16.920;2023-08-31T14:31:57;4.60;;;2.00;;
35576;SDS011;21680;52.400;16.920;2023-08-31T14:34:22;2.90;;;1.70;;